sensor_id;sensor_type;location;lat;lon;timestamp;pressure;altitude;pressure_sealevel;temperature;humidity
69239;BME280;56349;51.816;-0.026;2023-02-28T00:01:03;102709.81;;;26.14;25.67
69239;BME280;56349;51.816;-0.026;2023-02-28T00:03:18;102711.89;;;26.16;25.63
69239;BME280;56349;51.816;-0.026;2023-02-28T00:05:43;102714.49;;;26.16;25.61
69239;BME280;56349;51.816;-0.026;2023-02-28T00:08:08;102712.84;;;26.41;25.59
69239;BME280;56349;51.816;-0.026;2023-02-28T00:10:34;102711.58;;;26.40;25.57
69239;BME280;56349;51.816;-0.026;2023-02-28T00:13:01;102713.63;;;26.10;25.58
69239;BME280;56349;51.816;-0.026;2023-02-28T00:15:24;102715.87;;;26.07;25.55
69239;BME280;56349;51.816;-0.026;2023-02-28T00:17:50;102713.15;;;26.28;25.54
69239;BME280;56349;51.816;-0.026;2023-02-28T00:20:16;102714.10;;;26.21;25.66
69239;BME280;56349;51.816;-0.026;2023-02-28T00:22:44;102717.70;;;25.91;25.70
69239;BME280;56349;51.816;-0.026;2023-02-28T00:25:07;102714.95;;;26.33;25.76
69239;BME280;56349;51.816;-0.026;2023-02-28T00:27:32;102713.66;;;26.02;25.76
69239;BME280;56349;51.816;-0.026;2023-02-28T00:29:59;102713.19;;;26.16;25.72
69239;BME280;56349;51.816;-0.026;2023-02-28T00:32:25;102710.28;;;25.83;25.69
69239;BME280;56349;51.816;-0.026;2023-02-28T00:34:55;102712.71;;;25.91;25.71
69239;BME280;56349;51.816;-0.026;2023-02-28T00:37:17;102709.86;;;25.72;25.75
69239;BME280;56349;51.816;-0.026;2023-02-28T00:39:42;102706.83;;;25.49;25.85
69239;BME280;56349;51.816;-0.026;2023-02-28T00:42:08;102706.18;;;25.24;25.97
69239;BME280;56349;51.816;-0.026;2023-02-28T00:44:34;102704.22;;;25.46;26.10
69239;BME280;56349;51.816;-0.026;2023-02-28T00:47:00;102708.04;;;25.19;26.25
69239;BME280;56349;51.816;-0.026;2023-02-28T00:49:25;102705.77;;;24.89;26.43
69239;BME280;56349;51.816;-0.026;2023-02-28T00:51:50;102702.98;;;24.60;26.61
69239;BME280;56349;51.816;-0.026;2023-02-28T00:54:15;102706.91;;;24.52;26.82
69239;BME280;56349;51.816;-0.026;2023-02-28T00:56:40;102707.33;;;24.22;27.01
69239;BME280;56349;51.816;-0.026;2023-02-28T00:59:06;102705.43;;;24.16;27.20
69239;BME280;56349;51.816;-0.026;2023-02-28T01:01:32;102714.98;;;23.89;27.40
69239;BME280;56349;51.816;-0.026;2023-02-28T01:03:57;102719.02;;;23.61;27.60
69239;BME280;56349;51.816;-0.026;2023-02-28T01:06:24;102719.65;;;23.62;27.82
69239;BME280;56349;51.816;-0.026;2023-02-28T01:08:49;102717.05;;;23.57;28.02
69239;BME280;56349;51.816;-0.026;2023-02-28T01:11:16;102722.55;;;23.32;28.26
69239;BME280;56349;51.816;-0.026;2023-02-28T01:13:39;102720.03;;;23.07;28.48
69239;BME280;56349;51.816;-0.026;2023-02-28T01:16:04;102716.00;;;22.83;28.69
69239;BME280;56349;51.816;-0.026;2023-02-28T01:18:29;102717.95;;;23.08;28.89
69239;BME280;56349;51.816;-0.026;2023-02-28T01:20:55;102717.44;;;22.38;29.12
69239;BME280;56349;51.816;-0.026;2023-02-28T01:23:22;102714.30;;;22.64;29.34
69239;BME280;56349;51.816;-0.026;2023-02-28T01:25:47;102711.18;;;22.45;29.52
69239;BME280;56349;51.816;-0.026;2023-02-28T01:28:13;102708.71;;;22.24;29.72
69239;BME280;56349;51.816;-0.026;2023-02-28T01:30:39;102711.91;;;22.04;29.93
69239;BME280;56349;51.816;-0.026;2023-02-28T01:33:05;102713.58;;;21.85;30.13
69239;BME280;56349;51.816;-0.026;2023-02-28T01:35:32;102720.43;;;21.90;30.30
69239;BME280;56349;51.816;-0.026;2023-02-28T01:37:56;102720.05;;;21.73;30.47
69239;BME280;56349;51.816;-0.026;2023-02-28T01:40:22;102718.58;;;21.36;30.62
69239;BME280;56349;51.816;-0.026;2023-02-28T01:42:47;102719.80;;;21.19;30.80
69239;BME280;56349;51.816;-0.026;2023-02-28T01:45:21;102722.49;;;21.27;30.96
69239;BME280;56349;51.816;-0.026;2023-02-28T01:47:41;102727.41;;;21.12;31.11
69239;BME280;56349;51.816;-0.026;2023-02-28T01:50:09;102721.21;;;20.96;31.30
69239;BME280;56349;51.816;-0.026;2023-02-28T01:52:31;102717.88;;;21.09;31.45
69239;BME280;56349;51.816;-0.026;2023-02-28T01:54:58;102717.31;;;20.97;31.58
69239;BME280;56349;51.816;-0.026;2023-02-28T01:57:25;102711.49;;;20.84;31.72
69239;BME280;56349;51.816;-0.026;2023-02-28T01:59:52;102711.10;;;20.73;31.85
69239;BME280;56349;51.816;-0.026;2023-02-28T02:02:14;102710.15;;;20.61;31.97
69239;BME280;56349;51.816;-0.026;2023-02-28T02:04:43;102711.59;;;20.50;32.09
69239;BME280;56349;51.816;-0.026;2023-02-28T02:07:06;102709.52;;;20.38;32.22
69239;BME280;56349;51.816;-0.026;2023-02-28T02:09:31;102706.54;;;20.27;32.35
69239;BME280;56349;51.816;-0.026;2023-02-28T02:11:57;102709.39;;;20.38;32.47
69239;BME280;56349;51.816;-0.026;2023-02-28T02:14:32;102712.46;;;20.28;32.58
69239;BME280;56349;51.816;-0.026;2023-02-28T02:16:58;102711.90;;;20.20;32.67
69239;BME280;56349;51.816;-0.026;2023-02-28T02:24:13;102716.82;;;20.21;32.89
69239;BME280;56349;51.816;-0.026;2023-02-28T02:26:41;102712.81;;;19.69;32.99
69239;BME280;56349;51.816;-0.026;2023-02-28T02:36:15;102716.49;;;19.58;33.33
69239;BME280;56349;51.816;-0.026;2023-02-28T02:38:45;102725.20;;;19.72;33.41
69239;BME280;56349;51.816;-0.026;2023-02-28T02:41:10;102727.11;;;19.43;33.50
69239;BME280;56349;51.816;-0.026;2023-02-28T02:43:33;102726.60;;;19.59;33.57
69239;BME280;56349;51.816;-0.026;2023-02-28T02:45:57;102729.24;;;19.54;33.62
69239;BME280;56349;51.816;-0.026;2023-02-28T02:48:25;102731.65;;;19.48;33.68
69239;BME280;56349;51.816;-0.026;2023-02-28T02:50:51;102731.19;;;19.89;33.76
69239;BME280;56349;51.816;-0.026;2023-02-28T02:53:15;102732.78;;;19.35;33.81
69239;BME280;56349;51.816;-0.026;2023-02-28T02:55:41;102726.45;;;19.32;33.85
69239;BME280;56349;51.816;-0.026;2023-02-28T02:58:07;102719.87;;;19.27;33.90
69239;BME280;56349;51.816;-0.026;2023-02-28T03:00:34;102720.31;;;19.22;33.96
69239;BME280;56349;51.816;-0.026;2023-02-28T03:02:56;102728.00;;;19.17;34.00
69239;BME280;56349;51.816;-0.026;2023-02-28T03:05:25;102726.66;;;19.38;34.05
69239;BME280;56349;51.816;-0.026;2023-02-28T03:07:47;102720.24;;;19.53;34.11
69239;BME280;56349;51.816;-0.026;2023-02-28T03:12:43;102727.61;;;19.18;34.25
69239;BME280;56349;51.816;-0.026;2023-02-28T03:15:10;102723.65;;;19.34;34.30
69239;BME280;56349;51.816;-0.026;2023-02-28T03:17:41;102725.85;;;19.08;34.34
69239;BME280;56349;51.816;-0.026;2023-02-28T03:20:04;102725.45;;;19.26;34.38
69239;BME280;56349;51.816;-0.026;2023-02-28T03:22:34;102721.94;;;19.20;34.42
69239;BME280;56349;51.816;-0.026;2023-02-28T03:24:53;102719.59;;;19.14;34.49
69239;BME280;56349;51.816;-0.026;2023-02-28T03:27:18;102723.28;;;18.88;34.52
69239;BME280;56349;51.816;-0.026;2023-02-28T03:29:42;102722.88;;;19.07;34.56
69239;BME280;56349;51.816;-0.026;2023-02-28T03:32:08;102719.31;;;18.81;34.58
69239;BME280;56349;51.816;-0.026;2023-02-28T03:34:31;102718.37;;;18.76;34.62
69239;BME280;56349;51.816;-0.026;2023-02-28T03:36:57;102720.81;;;18.73;34.65
69239;BME280;56349;51.816;-0.026;2023-02-28T03:39:23;102724.75;;;18.69;34.68
69239;BME280;56349;51.816;-0.026;2023-02-28T03:41:51;102720.83;;;18.39;34.71
69239;BME280;56349;51.816;-0.026;2023-02-28T03:44:16;102717.62;;;18.64;34.73
69239;BME280;56349;51.816;-0.026;2023-02-28T03:46:43;102716.84;;;18.84;34.74
69239;BME280;56349;51.816;-0.026;2023-02-28T03:49:08;102715.96;;;18.79;34.78
69239;BME280;56349;51.816;-0.026;2023-02-28T03:51:29;102713.41;;;18.74;34.82
69239;BME280;56349;51.816;-0.026;2023-02-28T03:53:57;102711.20;;;18.71;34.85
69239;BME280;56349;51.816;-0.026;2023-02-28T03:56:21;102713.87;;;18.45;34.88
69239;BME280;56349;51.816;-0.026;2023-02-28T03:58:51;102714.42;;;18.63;34.91
69239;BME280;56349;51.816;-0.026;2023-02-28T04:01:16;102719.87;;;18.59;34.95
69239;BME280;56349;51.816;-0.026;2023-02-28T04:03:37;102719.07;;;18.56;34.98
69239;BME280;56349;51.816;-0.026;2023-02-28T04:06:02;102722.60;;;18.54;34.98
69239;BME280;56349;51.816;-0.026;2023-02-28T04:08:26;102722.62;;;18.48;35.02
69239;BME280;56349;51.816;-0.026;2023-02-28T04:10:56;102720.76;;;18.23;35.06
69239;BME280;56349;51.816;-0.026;2023-02-28T04:13:18;102718.09;;;18.41;35.08
69239;BME280;56349;51.816;-0.026;2023-02-28T04:15:44;102720.13;;;18.38;35.11
69239;BME280;56349;51.816;-0.026;2023-02-28T04:18:10;102718.10;;;18.35;35.13
69239;BME280;56349;51.816;-0.026;2023-02-28T04:20:36;102719.63;;;18.33;35.14
69239;BME280;56349;51.816;-0.026;2023-02-28T04:23:03;102722.80;;;18.29;35.17
69239;BME280;56349;51.816;-0.026;2023-02-28T04:25:29;102726.92;;;18.25;35.22
69239;BME280;56349;51.816;-0.026;2023-02-28T04:27:55;102730.80;;;18.22;35.25
69239;BME280;56349;51.816;-0.026;2023-02-28T04:30:20;102731.33;;;18.22;35.26
69239;BME280;56349;51.816;-0.026;2023-02-28T04:32:45;102733.03;;;18.20;35.32
69239;BME280;56349;51.816;-0.026;2023-02-28T04:35:11;102735.76;;;18.19;35.38
69239;BME280;56349;51.816;-0.026;2023-02-28T04:37:36;102738.39;;;18.23;35.42
69239;BME280;56349;51.816;-0.026;2023-02-28T04:40:03;102737.77;;;18.32;35.39
69239;BME280;56349;51.816;-0.026;2023-02-28T04:42:29;102734.37;;;18.42;35.34
69239;BME280;56349;51.816;-0.026;2023-02-28T04:44:54;102737.60;;;18.56;35.25
69239;BME280;56349;51.816;-0.026;2023-02-28T04:47:18;102742.71;;;18.48;35.12
69239;BME280;56349;51.816;-0.026;2023-02-28T04:49:44;102743.49;;;18.86;34.94
69239;BME280;56349;51.816;-0.026;2023-02-28T04:52:10;102741.28;;;19.04;34.76
69239;BME280;56349;51.816;-0.026;2023-02-28T04:54:37;102742.54;;;18.71;34.51
69239;BME280;56349;51.816;-0.026;2023-02-28T04:57:03;102747.53;;;19.12;34.30
69239;BME280;56349;51.816;-0.026;2023-02-28T04:59:29;102751.02;;;18.95;34.12
69239;BME280;56349;51.816;-0.026;2023-02-28T05:01:54;102752.33;;;19.02;33.97
69239;BME280;56349;51.816;-0.026;2023-02-28T05:04:20;102746.98;;;19.06;33.85
69239;BME280;56349;51.816;-0.026;2023-02-28T05:06:46;102744.84;;;19.08;33.80
69239;BME280;56349;51.816;-0.026;2023-02-28T05:09:12;102742.44;;;19.07;33.83
69239;BME280;56349;51.816;-0.026;2023-02-28T05:11:37;102748.81;;;19.31;33.91
69239;BME280;56349;51.816;-0.026;2023-02-28T05:14:05;102748.14;;;19.02;34.02
69239;BME280;56349;51.816;-0.026;2023-02-28T05:16:29;102747.89;;;19.52;34.10
69239;BME280;56349;51.816;-0.026;2023-02-28T05:18:54;102749.92;;;19.53;34.24
69239;BME280;56349;51.816;-0.026;2023-02-28T05:21:26;102751.12;;;19.03;34.36
69239;BME280;56349;51.816;-0.026;2023-02-28T05:23:45;102752.80;;;19.27;34.58
69239;BME280;56349;51.816;-0.026;2023-02-28T05:26:11;102751.38;;;19.26;34.75
69239;BME280;56349;51.816;-0.026;2023-02-28T05:28:38;102751.03;;;19.24;34.97
69239;BME280;56349;51.816;-0.026;2023-02-28T05:31:04;102751.31;;;18.94;35.13
69239;BME280;56349;51.816;-0.026;2023-02-28T05:33:29;102756.53;;;19.20;35.30
69239;BME280;56349;51.816;-0.026;2023-02-28T05:35:55;102761.83;;;19.20;35.48
69239;BME280;56349;51.816;-0.026;2023-02-28T05:38:20;102761.58;;;19.21;35.58
69239;BME280;56349;51.816;-0.026;2023-02-28T05:40:46;102763.14;;;18.97;35.71
69239;BME280;56349;51.816;-0.026;2023-02-28T05:43:12;102761.94;;;19.49;35.78
69239;BME280;56349;51.816;-0.026;2023-02-28T05:45:39;102762.06;;;19.29;35.86
69239;BME280;56349;51.816;-0.026;2023-02-28T05:48:04;102769.38;;;19.32;35.95
69239;BME280;56349;51.816;-0.026;2023-02-28T05:50:29;102766.92;;;19.34;36.04
69239;BME280;56349;51.816;-0.026;2023-02-28T05:52:55;102758.16;;;19.10;36.06
69239;BME280;56349;51.816;-0.026;2023-02-28T05:55:21;102763.20;;;19.11;36.14
69239;BME280;56349;51.816;-0.026;2023-02-28T05:57:47;102761.76;;;19.13;36.19
69239;BME280;56349;51.816;-0.026;2023-02-28T06:00:13;102762.07;;;19.42;36.24
69239;BME280;56349;51.816;-0.026;2023-02-28T06:02:39;102762.55;;;19.47;36.26
69239;BME280;56349;51.816;-0.026;2023-02-28T06:05:03;102758.84;;;19.26;36.26
69239;BME280;56349;51.816;-0.026;2023-02-28T06:07:28;102755.53;;;19.29;36.29
69239;BME280;56349;51.816;-0.026;2023-02-28T06:09:54;102756.37;;;19.60;36.30
69239;BME280;56349;51.816;-0.026;2023-02-28T06:12:20;102760.54;;;19.36;36.32
69239;BME280;56349;51.816;-0.026;2023-02-28T06:14:46;102759.52;;;19.66;36.33
69239;BME280;56349;51.816;-0.026;2023-02-28T06:17:12;102757.69;;;19.68;36.34
69239;BME280;56349;51.816;-0.026;2023-02-28T06:19:38;102756.42;;;19.44;36.38
69239;BME280;56349;51.816;-0.026;2023-02-28T06:22:03;102759.01;;;19.45;36.40
69239;BME280;56349;51.816;-0.026;2023-02-28T06:24:29;102761.51;;;19.48;36.42
69239;BME280;56349;51.816;-0.026;2023-02-28T06:26:54;102761.18;;;19.55;36.39
69239;BME280;56349;51.816;-0.026;2023-02-28T06:29:19;102766.61;;;19.59;36.31
69239;BME280;56349;51.816;-0.026;2023-02-28T06:31:46;102769.80;;;19.61;36.26
69239;BME280;56349;51.816;-0.026;2023-02-28T06:34:12;102761.09;;;19.61;36.21
69239;BME280;56349;51.816;-0.026;2023-02-28T06:36:37;102758.78;;;19.61;36.15
69239;BME280;56349;51.816;-0.026;2023-02-28T06:39:02;102764.63;;;19.63;36.06
69239;BME280;56349;51.816;-0.026;2023-02-28T06:41:28;102765.93;;;19.63;35.96
69239;BME280;56349;51.816;-0.026;2023-02-28T06:43:53;102762.70;;;19.42;35.85
69239;BME280;56349;51.816;-0.026;2023-02-28T06:46:18;102762.90;;;19.69;35.69
69239;BME280;56349;51.816;-0.026;2023-02-28T06:48:44;102763.91;;;19.68;35.59
69239;BME280;56349;51.816;-0.026;2023-02-28T06:51:10;102764.41;;;19.66;35.49
69239;BME280;56349;51.816;-0.026;2023-02-28T06:53:35;102765.48;;;19.64;35.39
69239;BME280;56349;51.816;-0.026;2023-02-28T06:56:04;102764.21;;;19.61;35.34
69239;BME280;56349;51.816;-0.026;2023-02-28T06:58:26;102763.91;;;19.59;35.24
69239;BME280;56349;51.816;-0.026;2023-02-28T07:00:53;102766.97;;;19.57;35.15
69239;BME280;56349;51.816;-0.026;2023-02-28T07:03:18;102766.65;;;19.82;35.08
69239;BME280;56349;51.816;-0.026;2023-02-28T07:05:43;102770.55;;;19.53;35.02
69239;BME280;56349;51.816;-0.026;2023-02-28T07:08:08;102770.98;;;19.51;34.97
69239;BME280;56349;51.816;-0.026;2023-02-28T07:10:37;102771.68;;;19.47;34.92
69239;BME280;56349;51.816;-0.026;2023-02-28T07:13:00;102773.04;;;19.69;34.88
69239;BME280;56349;51.816;-0.026;2023-02-28T07:15:25;102770.98;;;19.66;34.84
69239;BME280;56349;51.816;-0.026;2023-02-28T07:17:51;102769.68;;;19.63;34.81
69239;BME280;56349;51.816;-0.026;2023-02-28T07:20:17;102768.72;;;19.59;34.79
69239;BME280;56349;51.816;-0.026;2023-02-28T07:22:42;102769.90;;;19.28;34.78
69239;BME280;56349;51.816;-0.026;2023-02-28T07:25:08;102766.59;;;19.24;34.76
69239;BME280;56349;51.816;-0.026;2023-02-28T07:27:33;102765.23;;;19.47;34.62
69239;BME280;56349;51.816;-0.026;2023-02-28T07:29:58;102762.27;;;19.18;34.45
69239;BME280;56349;51.816;-0.026;2023-02-28T07:32:28;102761.56;;;19.15;34.46
69239;BME280;56349;51.816;-0.026;2023-02-28T07:34:50;102758.63;;;19.41;34.57
69239;BME280;56349;51.816;-0.026;2023-02-28T07:37:17;102756.48;;;19.14;34.72
69239;BME280;56349;51.816;-0.026;2023-02-28T07:39:41;102747.76;;;19.45;34.86
69239;BME280;56349;51.816;-0.026;2023-02-28T07:42:06;102752.35;;;19.25;34.91
69239;BME280;56349;51.816;-0.026;2023-02-28T07:44:32;102751.68;;;19.35;34.93
69239;BME280;56349;51.816;-0.026;2023-02-28T07:46:59;102754.73;;;19.47;34.95
69239;BME280;56349;51.816;-0.026;2023-02-28T07:49:24;102759.90;;;19.64;34.95
69239;BME280;56349;51.816;-0.026;2023-02-28T07:51:50;102763.72;;;19.86;34.88
69239;BME280;56349;51.816;-0.026;2023-02-28T07:54:16;102773.01;;;20.09;34.73
69239;BME280;56349;51.816;-0.026;2023-02-28T07:56:41;102768.02;;;19.89;34.55
69239;BME280;56349;51.816;-0.026;2023-02-28T07:59:08;102769.36;;;20.14;34.33
69239;BME280;56349;51.816;-0.026;2023-02-28T08:01:33;102770.54;;;20.41;34.11
69239;BME280;56349;51.816;-0.026;2023-02-28T08:03:59;102768.58;;;20.68;33.87
69239;BME280;56349;51.816;-0.026;2023-02-28T08:06:25;102775.50;;;20.95;33.59
69239;BME280;56349;51.816;-0.026;2023-02-28T08:08:51;102771.97;;;21.22;33.32
69239;BME280;56349;51.816;-0.026;2023-02-28T08:11:17;102777.25;;;21.48;33.04
69239;BME280;56349;51.816;-0.026;2023-02-28T08:13:42;102775.43;;;21.45;32.79
69239;BME280;56349;51.816;-0.026;2023-02-28T08:16:08;102775.84;;;21.48;32.52
69239;BME280;56349;51.816;-0.026;2023-02-28T08:18:34;102775.33;;;21.71;32.25
69239;BME280;56349;51.816;-0.026;2023-02-28T08:20:58;102777.61;;;21.74;31.97
69239;BME280;56349;51.816;-0.026;2023-02-28T08:23:24;102779.22;;;21.95;31.74
69239;BME280;56349;51.816;-0.026;2023-02-28T08:25:53;102782.95;;;21.89;31.48
69239;BME280;56349;51.816;-0.026;2023-02-28T08:28:15;102776.22;;;22.56;31.27
69239;BME280;56349;51.816;-0.026;2023-02-28T08:30:40;102778.26;;;22.27;31.05
69239;BME280;56349;51.816;-0.026;2023-02-28T08:33:06;102772.93;;;22.43;30.85
69239;BME280;56349;51.816;-0.026;2023-02-28T08:35:35;102773.19;;;22.60;30.64
69239;BME280;56349;51.816;-0.026;2023-02-28T08:37:58;102771.91;;;22.77;30.45
69239;BME280;56349;51.816;-0.026;2023-02-28T08:40:24;102772.70;;;22.93;30.26
69239;BME280;56349;51.816;-0.026;2023-02-28T08:42:51;102772.67;;;22.59;30.09
69239;BME280;56349;51.816;-0.026;2023-02-28T08:45:16;102780.00;;;23.00;29.93
69239;BME280;56349;51.816;-0.026;2023-02-28T08:47:41;102778.94;;;23.34;29.81
69239;BME280;56349;51.816;-0.026;2023-02-28T08:50:07;102776.32;;;22.97;29.67
69239;BME280;56349;51.816;-0.026;2023-02-28T08:52:32;102775.49;;;23.09;29.53
69239;BME280;56349;51.816;-0.026;2023-02-28T08:54:58;102778.65;;;23.21;29.44
69239;BME280;56349;51.816;-0.026;2023-02-28T08:57:24;102772.66;;;23.59;29.30
69239;BME280;56349;51.816;-0.026;2023-02-28T08:59:51;102769.16;;;23.41;29.18
69239;BME280;56349;51.816;-0.026;2023-02-28T09:02:15;102763.93;;;23.48;29.08
69239;BME280;56349;51.816;-0.026;2023-02-28T09:04:42;102761.13;;;23.33;28.96
69239;BME280;56349;51.816;-0.026;2023-02-28T09:07:07;102757.39;;;23.92;28.80
69239;BME280;56349;51.816;-0.026;2023-02-28T09:09:32;102761.54;;;23.73;28.64
69239;BME280;56349;51.816;-0.026;2023-02-28T09:11:59;102757.12;;;23.83;28.41
69239;BME280;56349;51.816;-0.026;2023-02-28T09:14:24;102754.49;;;23.94;28.23
69239;BME280;56349;51.816;-0.026;2023-02-28T09:16:50;102748.39;;;24.07;28.05
69239;BME280;56349;51.816;-0.026;2023-02-28T09:19:15;102741.78;;;24.18;27.92
69239;BME280;56349;51.816;-0.026;2023-02-28T09:21:41;102740.87;;;24.02;27.79
69239;BME280;56349;51.816;-0.026;2023-02-28T09:24:08;102740.29;;;23.87;27.81
69239;BME280;56349;51.816;-0.026;2023-02-28T09:26:31;102742.12;;;24.40;27.83
69239;BME280;56349;51.816;-0.026;2023-02-28T09:28:57;102740.86;;;24.01;27.79
69239;BME280;56349;51.816;-0.026;2023-02-28T09:31:25;102742.60;;;24.32;27.73
69239;BME280;56349;51.816;-0.026;2023-02-28T09:33:51;102743.28;;;24.39;27.67
69239;BME280;56349;51.816;-0.026;2023-02-28T09:36:16;102747.29;;;24.23;27.65
69239;BME280;56349;51.816;-0.026;2023-02-28T09:38:42;102747.98;;;24.33;27.63
69239;BME280;56349;51.816;-0.026;2023-02-28T09:41:13;102749.64;;;24.84;27.57
69239;BME280;56349;51.816;-0.026;2023-02-28T09:43:35;102754.06;;;24.44;27.52
69239;BME280;56349;51.816;-0.026;2023-02-28T09:46:02;102750.23;;;24.49;27.43
69239;BME280;56349;51.816;-0.026;2023-02-28T09:48:27;102751.40;;;24.28;27.37
69239;BME280;56349;51.816;-0.026;2023-02-28T09:50:52;102752.18;;;24.35;27.27
69239;BME280;56349;51.816;-0.026;2023-02-28T09:53:21;102747.64;;;24.42;27.23
69239;BME280;56349;51.816;-0.026;2023-02-28T09:55:44;102746.19;;;24.73;27.20
69239;BME280;56349;51.816;-0.026;2023-02-28T09:58:11;102746.23;;;24.76;27.23
69239;BME280;56349;51.816;-0.026;2023-02-28T10:00:35;102745.20;;;24.76;27.24
69239;BME280;56349;51.816;-0.026;2023-02-28T10:03:06;102740.94;;;24.77;27.20
69239;BME280;56349;51.816;-0.026;2023-02-28T10:05:25;102739.70;;;24.78;27.16
69239;BME280;56349;51.816;-0.026;2023-02-28T10:07:58;102743.85;;;24.54;27.07
69239;BME280;56349;51.816;-0.026;2023-02-28T10:10:21;102743.48;;;24.55;26.98
69239;BME280;56349;51.816;-0.026;2023-02-28T10:12:42;102743.19;;;24.84;26.88
69239;BME280;56349;51.816;-0.026;2023-02-28T10:15:07;102741.69;;;24.96;26.72
69239;BME280;56349;51.816;-0.026;2023-02-28T10:17:37;102741.30;;;24.76;26.55
69239;BME280;56349;51.816;-0.026;2023-02-28T10:20:02;102740.87;;;25.03;26.45
69239;BME280;56349;51.816;-0.026;2023-02-28T10:22:25;102739.38;;;24.72;26.45
69239;BME280;56349;51.816;-0.026;2023-02-28T10:24:49;102741.07;;;24.95;26.46
69239;BME280;56349;51.816;-0.026;2023-02-28T10:27:15;102737.92;;;24.65;26.41
69239;BME280;56349;51.816;-0.026;2023-02-28T10:29:42;102741.44;;;24.92;26.36
69239;BME280;56349;51.816;-0.026;2023-02-28T10:32:05;102737.92;;;24.94;26.27
69239;BME280;56349;51.816;-0.026;2023-02-28T10:34:31;102733.10;;;24.94;26.20
69239;BME280;56349;51.816;-0.026;2023-02-28T10:36:58;102732.11;;;24.65;26.13
69239;BME280;56349;51.816;-0.026;2023-02-28T10:41:48;102729.43;;;24.89;26.04
69239;BME280;56349;51.816;-0.026;2023-02-28T10:44:19;102727.96;;;24.62;25.97
69239;BME280;56349;51.816;-0.026;2023-02-28T10:46:40;102728.76;;;24.86;25.92
69239;BME280;56349;51.816;-0.026;2023-02-28T10:49:10;102723.24;;;24.85;25.88
69239;BME280;56349;51.816;-0.026;2023-02-28T10:51:36;102721.90;;;24.66;25.77
69239;BME280;56349;51.816;-0.026;2023-02-28T10:53:55;102717.12;;;24.94;25.68
69239;BME280;56349;51.816;-0.026;2023-02-28T10:56:24;102717.50;;;24.89;25.68
69239;BME280;56349;51.816;-0.026;2023-02-28T10:58:52;102717.03;;;24.82;25.68
69239;BME280;56349;51.816;-0.026;2023-02-28T11:01:16;102723.64;;;24.78;25.67
69239;BME280;56349;51.816;-0.026;2023-02-28T11:03:39;102719.00;;;24.75;25.67
69239;BME280;56349;51.816;-0.026;2023-02-28T11:06:07;102714.54;;;24.72;25.64
69239;BME280;56349;51.816;-0.026;2023-02-28T11:08:30;102715.36;;;24.69;25.64
69239;BME280;56349;51.816;-0.026;2023-02-28T11:10:57;102713.54;;;24.41;25.62
69239;BME280;56349;51.816;-0.026;2023-02-28T11:13:26;102711.92;;;24.64;25.61
69239;BME280;56349;51.816;-0.026;2023-02-28T11:15:51;102707.48;;;24.58;25.61
69239;BME280;56349;51.816;-0.026;2023-02-28T11:18:22;102703.97;;;24.56;25.58
69239;BME280;56349;51.816;-0.026;2023-02-28T11:20:39;102708.69;;;24.52;25.57
69239;BME280;56349;51.816;-0.026;2023-02-28T11:23:04;102703.09;;;24.50;25.57
69239;BME280;56349;51.816;-0.026;2023-02-28T11:25:32;102698.46;;;24.49;25.53
69239;BME280;56349;51.816;-0.026;2023-02-28T11:27:57;102692.76;;;24.46;25.55
69239;BME280;56349;51.816;-0.026;2023-02-28T11:30:28;102684.79;;;24.88;25.54
69239;BME280;56349;51.816;-0.026;2023-02-28T11:32:49;102671.25;;;24.41;25.55
69239;BME280;56349;51.816;-0.026;2023-02-28T11:35:18;102645.03;;;24.41;25.55
69239;BME280;56349;51.816;-0.026;2023-02-28T11:37:39;102630.51;;;24.63;25.55
69239;BME280;56349;51.816;-0.026;2023-02-28T11:40:08;102632.49;;;24.40;25.55
69239;BME280;56349;51.816;-0.026;2023-02-28T11:42:43;102641.22;;;24.57;25.36
69239;BME280;56349;51.816;-0.026;2023-02-28T11:45:08;102648.28;;;24.20;25.34
69239;BME280;56349;51.816;-0.026;2023-02-28T11:47:30;102651.14;;;24.09;25.39
69239;BME280;56349;51.816;-0.026;2023-02-28T11:49:56;102650.36;;;23.98;25.55
69239;BME280;56349;51.816;-0.026;2023-02-28T11:52:21;102649.41;;;24.10;25.62
69239;BME280;56349;51.816;-0.026;2023-02-28T11:54:56;102656.22;;;24.03;25.66
69239;BME280;56349;51.816;-0.026;2023-02-28T11:59:43;102654.70;;;23.79;25.60
69239;BME280;56349;51.816;-0.026;2023-02-28T12:02:05;102656.86;;;23.76;25.52
69239;BME280;56349;51.816;-0.026;2023-02-28T12:04:29;102654.05;;;23.70;25.53
69239;BME280;56349;51.816;-0.026;2023-02-28T12:06:55;102650.04;;;24.08;25.57
69239;BME280;56349;51.816;-0.026;2023-02-28T12:09:28;102649.62;;;24.06;25.52
69239;BME280;56349;51.816;-0.026;2023-02-28T12:11:48;102646.73;;;23.81;25.58
69239;BME280;56349;51.816;-0.026;2023-02-28T12:16:41;102637.66;;;23.49;25.66
69239;BME280;56349;51.816;-0.026;2023-02-28T12:21:30;102640.08;;;23.90;25.62
69239;BME280;56349;51.816;-0.026;2023-02-28T12:23:56;102637.53;;;23.67;25.56
69239;BME280;56349;51.816;-0.026;2023-02-28T12:26:19;102636.39;;;23.44;25.52
69239;BME280;56349;51.816;-0.026;2023-02-28T12:28:42;102633.99;;;23.87;25.48
69239;BME280;56349;51.816;-0.026;2023-02-28T12:31:08;102632.36;;;23.85;25.47
69239;BME280;56349;51.816;-0.026;2023-02-28T12:33:34;102623.38;;;23.62;25.44
69239;BME280;56349;51.816;-0.026;2023-02-28T12:35:59;102614.18;;;23.39;25.44
69239;BME280;56349;51.816;-0.026;2023-02-28T12:38:23;102605.50;;;23.60;25.48
69239;BME280;56349;51.816;-0.026;2023-02-28T12:40:52;102598.16;;;23.84;25.48
69239;BME280;56349;51.816;-0.026;2023-02-28T12:43:14;102594.23;;;23.58;25.22
69239;BME280;56349;51.816;-0.026;2023-02-28T12:45:41;102585.80;;;23.76;25.26
69239;BME280;56349;51.816;-0.026;2023-02-28T12:48:06;102581.82;;;23.71;25.31
69239;BME280;56349;51.816;-0.026;2023-02-28T12:50:28;102583.55;;;23.46;25.34
69239;BME280;56349;51.816;-0.026;2023-02-28T12:52:58;102580.60;;;23.67;25.32
69239;BME280;56349;51.816;-0.026;2023-02-28T12:55:23;102580.60;;;23.65;24.97